createdAt,value
2023-05-16T01:39:23.084Z,18.20
2023-05-16T01:50:27.919Z,21.50
2023-05-16T02:01:27.814Z,21.50
2023-05-16T02:12:27.674Z,16.70
2023-05-16T02:23:27.544Z,16.40
2023-05-16T02:34:27.414Z,15.30
2023-05-16T02:45:27.668Z,15.70
2023-05-16T02:56:27.168Z,12.40
2023-05-16T03:07:27.043Z,14.40
2023-05-16T03:18:26.953Z,13.60
2023-05-16T03:29:26.801Z,14.40
2023-05-16T03:40:26.686Z,13.60
2023-05-16T03:51:26.545Z,13.40
2023-05-16T04:02:26.603Z,14.70
2023-05-16T04:13:26.321Z,12.80
2023-05-16T04:24:26.230Z,13.40
2023-05-16T04:35:26.352Z,12.50
2023-05-16T04:46:25.978Z,12.80
2023-05-16T04:57:25.807Z,9.20
2023-05-16T05:08:25.671Z,8.00
2023-05-16T05:19:25.691Z,6.50
2023-05-16T05:30:25.447Z,6.20
2023-05-16T05:41:25.296Z,4.30
2023-05-16T05:52:25.176Z,3.20
2023-05-16T06:03:25.062Z,2.10
2023-05-16T06:14:24.926Z,1.80
2023-05-16T06:25:25.205Z,1.80
2023-05-16T06:36:24.703Z,2.30
2023-05-16T06:47:24.554Z,1.80
2023-05-16T06:58:24.436Z,1.70
2023-05-16T07:09:24.302Z,1.40
2023-05-16T07:20:24.181Z,1.20
2023-05-16T07:31:24.104Z,1.00
2023-05-16T07:42:24.040Z,1.50
2023-05-16T07:53:23.807Z,1.50
2023-05-16T08:04:23.688Z,0.90
2023-05-16T08:15:23.551Z,1.50
2023-05-16T08:26:23.425Z,1.20
2023-05-16T08:37:23.450Z,1.00
2023-05-16T08:48:23.305Z,1.00
2023-05-16T08:59:23.061Z,1.20
2023-05-16T09:10:22.970Z,1.20
2023-05-16T09:21:22.837Z,0.80
2023-05-16T09:32:22.687Z,0.60
2023-05-16T09:43:22.706Z,0.90
2023-05-16T09:54:22.435Z,0.70
2023-05-16T10:05:22.316Z,0.90
2023-05-16T10:16:22.228Z,0.60
2023-05-16T10:27:22.057Z,1.40
2023-05-16T10:38:22.022Z,1.20
2023-05-16T10:49:21.824Z,0.90
2023-05-16T11:00:21.678Z,1.00
2023-05-16T11:11:21.620Z,1.50
2023-05-16T11:22:21.449Z,1.70
2023-05-16T11:33:21.435Z,1.30
2023-05-16T11:44:21.406Z,2.70
2023-05-16T11:55:32.516Z,1.70
2023-05-16T12:06:20.951Z,3.00
2023-05-16T12:17:20.806Z,1.60
2023-05-16T12:28:20.687Z,2.00
2023-05-16T12:39:20.702Z,2.30
2023-05-16T12:50:20.434Z,3.00
2023-05-16T13:01:20.358Z,1.70
2023-05-16T13:12:20.181Z,1.90
2023-05-16T13:23:20.049Z,2.00
2023-05-16T13:34:20.026Z,1.70
2023-05-16T13:45:19.928Z,1.80
2023-05-16T13:56:19.671Z,1.70
2023-05-16T14:07:19.563Z,1.60
2023-05-16T14:18:19.526Z,2.50
2023-05-16T14:29:19.301Z,1.20
2023-05-16T14:40:19.178Z,1.40
2023-05-16T14:51:19.059Z,1.30
2023-05-16T15:02:18.958Z,1.70
2023-05-16T15:13:18.796Z,1.50
2023-05-16T15:24:18.761Z,1.40
2023-05-16T15:35:18.545Z,1.60
2023-05-16T15:46:18.456Z,1.30
2023-05-16T15:57:18.551Z,0.80
2023-05-16T16:08:18.214Z,1.50
2023-05-16T16:19:18.246Z,1.00
2023-05-16T16:30:17.966Z,1.30
2023-05-16T16:41:17.833Z,0.90
2023-05-16T16:52:17.673Z,0.90
2023-05-16T17:03:17.589Z,1.10
2023-05-16T17:14:17.426Z,1.00
2023-05-16T17:25:17.298Z,0.90
2023-05-16T17:36:17.176Z,1.00
2023-05-16T17:47:17.046Z,1.10
2023-05-16T17:58:16.928Z,1.00
2023-05-16T18:09:16.810Z,1.40
2023-05-16T18:20:16.874Z,0.90
2023-05-16T18:31:16.565Z,1.50
2023-05-16T18:42:16.476Z,1.40
2023-05-16T18:53:16.312Z,1.10
2023-05-16T19:04:16.265Z,1.50
2023-05-16T19:15:16.052Z,1.30
2023-05-16T19:26:15.945Z,1.40
2023-05-16T19:37:15.787Z,1.10
2023-05-16T19:48:15.766Z,1.30
2023-05-16T19:59:15.551Z,1.30
2023-05-16T20:10:15.412Z,0.80
2023-05-16T20:21:15.322Z,1.10
